Time;durP1;ratioP1;P1;durP2;ratioP2;P2;SDS_P1;SDS_P2;PMS_P1;PMS_P2;Temp;Humidity;BMP_temperature;BMP_pressure;BME280_temperature;BME280_humidity;BME280_pressure;Samples;Min_cycle;Max_cycle;Signal;HPM_P1;HPM_P2
2024/02/12 00:02:18;;;;;;;115.63;66.05;;;308.10;2252.80;;;;;;4838853;29;20525;-76
2024/02/12 00:04:49;;;;;;;26.90;13.63;;;333.10;2304.00;;;;;;4836623;29;20022;-76
2024/02/12 00:07:16;;;;;;;22.85;11.35;;;332.80;2227.20;;;;;;4838954;29;20075;-75
2024/02/12 00:09:43;;;;;;;24.70;11.95;;;332.90;2227.20;;;;;;4838564;29;20074;-75
2024/02/12 00:12:11;;;;;;;57.30;27.95;;;332.90;2227.20;;;;;;4839202;29;20031;-76
2024/02/12 00:14:40;;;;;;;24.23;10.32;;;333.00;2227.20;;;;;;4838683;29;20048;-74
2024/02/12 00:17:09;;;;;;;11.68;5.93;;;333.00;2227.20;;;;;;4839095;29;20049;-78
2024/02/12 00:19:35;;;;;;;15.23;6.20;;;333.00;2227.20;;;;;;4838596;29;20030;-74
2024/02/12 00:22:01;;;;;;;379.67;190.55;;;332.90;2252.80;;;;;;4838600;29;20457;-75
2024/02/12 00:24:28;;;;;;;124.75;76.60;;;332.80;2304.00;;;;;;4838688;29;20026;-75
2024/02/12 00:27:00;;;;;;;140.10;83.63;;;308.10;2304.00;;;;;;4838536;29;20100;-77
2024/02/12 00:29:26;;;;;;;133.15;78.40;;;308.10;2304.00;;;;;;4838325;29;20106;-79
2024/02/12 00:31:53;;;;;;;128.30;80.63;;;308.10;2304.00;;;;;;4838446;29;20022;-75
2024/02/12 00:34:20;;;;;;;63.08;38.03;;;308.00;2304.00;;;;;;4838382;29;20551;-77
2024/02/12 00:36:49;;;;;;;88.72;53.13;;;308.00;2304.00;;;;;;4838604;29;20029;-77
2024/02/12 00:39:15;;;;;;;43.10;25.38;;;308.10;2304.00;;;;;;4837883;29;20112;-80
2024/02/12 00:41:40;;;;;;;51.35;30.77;;;307.90;2304.00;;;;;;4839186;29;20422;-80
2024/02/12 00:44:06;;;;;;;36.67;22.38;;;308.00;2304.00;;;;;;4838408;29;20029;-80
2024/02/12 00:46:32;;;;;;;43.42;23.33;;;307.90;2304.00;;;;;;4837464;29;20029;-76
2024/02/12 00:48:58;;;;;;;34.40;19.75;;;307.90;2304.00;;;;;;4838059;29;20046;-78
2024/02/12 00:51:24;;;;;;;36.95;20.42;;;307.90;2304.00;;;;;;4837398;29;20022;-81
2024/02/12 00:53:49;;;;;;;35.35;16.38;;;308.00;2304.00;;;;;;4838391;29;20058;-77
2024/02/12 00:56:15;;;;;;;33.78;17.65;;;307.90;2304.00;;;;;;4838463;29;20026;-78
2024/02/12 00:58:42;;;;;;;35.92;18.20;;;307.90;2304.00;;;;;;4838288;29;20541;-80
2024/02/12 01:01:10;;;;;;;42.15;24.88;;;307.80;2304.00;;;;;;4846506;29;20029;-78
2024/02/12 01:03:36;;;;;;;47.83;26.35;;;;;;;;;;4837992;29;20065;-79
2024/02/12 01:06:03;;;;;;;47.45;26.67;;;;;;;;;;4837894;29;20034;-77
2024/02/12 01:08:29;;;;;;;44.63;26.13;;;307.40;2304.00;;;;;;4835088;29;20126;-77
2024/02/12 01:10:55;;;;;;;53.92;32.42;;;307.50;2304.00;;;;;;4838438;29;20036;-80
2024/02/12 01:13:21;;;;;;;49.00;29.83;;;307.50;2304.00;;;;;;4837894;29;20022;-77
2024/02/12 01:15:50;;;;;;;50.30;32.20;;;307.60;2304.00;;;;;;4838416;29;20030;-78
2024/02/12 01:18:16;;;;;;;86.57;47.20;;;307.80;2304.00;;;;;;4837962;29;20101;-77
2024/02/12 01:20:42;;;;;;;42.95;24.17;;;307.80;2304.00;;;;;;4838201;29;20079;-77
2024/02/12 01:23:08;;;;;;;56.53;34.00;;;307.80;2304.00;;;;;;4842194;29;20429;-75
2024/02/12 01:25:34;;;;;;;51.25;29.08;;;307.90;2304.00;;;;;;4846068;29;20041;-77
2024/02/12 01:28:00;;;;;;;46.60;27.20;;;308.00;2304.00;;;;;;4837994;29;20049;-76
2024/02/12 01:30:27;;;;;;;54.80;36.47;;;308.00;2304.00;;;;;;4837945;29;20090;-81
2024/02/12 01:32:53;;;;;;;45.72;29.92;;;307.90;2304.00;;;;;;4837673;29;20102;-80
2024/02/12 01:35:20;;;;;;;67.15;41.65;;;307.80;2304.00;;;;;;4837958;29;20078;-82
2024/02/12 01:37:46;;;;;;;72.50;43.38;;;307.60;2304.00;;;;;;4837925;29;20022;-78
2024/02/12 01:40:13;;;;;;;71.40;40.95;;;307.50;2304.00;;;;;;4849018;29;20117;-77
2024/02/12 01:42:39;;;;;;;61.92;36.45;;;307.60;2304.00;;;;;;4839578;29;20014;-76
2024/02/12 01:45:13;;;;;;;59.67;36.40;;;307.40;2304.00;;;;;;4837916;29;20108;-79
2024/02/12 01:47:48;;;;;;;62.58;39.15;;;307.50;2304.00;;;;;;4837997;29;20071;-81
2024/02/12 01:50:15;;;;;;;55.22;36.22;;;307.50;2304.00;;;;;;4837841;29;20241;-83
2024/02/12 01:52:48;;;;;;;64.75;41.72;;;307.60;2304.00;;;;;;4841468;29;20520;-80
2024/02/12 01:55:15;;;;;;;77.28;46.20;;;307.50;2304.00;;;;;;4841139;29;20056;-78
2024/02/12 01:57:50;;;;;;;66.78;43.92;;;307.60;2304.00;;;;;;4841517;29;20474;-81
2024/02/12 02:00:21;;;;;;;76.65;47.22;;;307.60;2304.00;;;;;;4841194;29;20061;-79
2024/02/12 02:02:47;;;;;;;71.43;45.45;;;307.60;2304.00;;;;;;4841393;29;20083;-81
2024/02/12 02:05:13;;;;;;;69.88;44.47;;;307.70;2304.00;;;;;;4841126;29;20022;-81
2024/02/12 02:07:39;;;;;;;79.82;51.30;;;307.60;2304.00;;;;;;4841414;29;20058;-79
2024/02/12 02:10:09;;;;;;;78.35;49.60;;;307.60;2304.00;;;;;;4840933;29;20484;-79
2024/02/12 02:12:38;;;;;;;71.53;46.72;;;307.60;2304.00;;;;;;4840906;29;20022;-77
2024/02/12 02:15:07;;;;;;;61.40;38.60;;;307.70;2304.00;;;;;;4840664;29;20030;-78
2024/02/12 02:17:33;;;;;;;65.82;40.60;;;307.60;2304.00;;;;;;4840931;29;20029;-81
2024/02/12 02:19:59;;;;;;;105.00;65.10;;;307.60;2304.00;;;;;;4841082;29;20018;-75
2024/02/12 02:22:26;;;;;;;99.30;64.30;;;307.60;2304.00;;;;;;4841402;29;20113;-81
2024/02/12 02:24:52;;;;;;;98.68;59.33;;;307.60;2304.00;;;;;;4840718;29;20493;-82
2024/02/12 02:27:18;;;;;;;85.53;53.13;;;307.50;2304.00;;;;;;4841145;29;20170;-81
2024/02/12 02:29:43;;;;;;;60.80;37.88;;;307.50;2304.00;;;;;;4824203;29;20048;-79
2024/02/12 02:32:09;;;;;;;63.55;37.58;;;307.60;2304.00;;;;;;4841664;29;20034;-77
2024/02/12 02:34:35;;;;;;;60.10;34.03;;;307.60;2304.00;;;;;;4840794;29;20054;-77
2024/02/12 02:37:03;;;;;;;59.60;38.95;;;307.70;2304.00;;;;;;4840693;29;20026;-77
2024/02/12 02:39:29;;;;;;;65.05;40.50;;;307.70;2304.00;;;;;;4840813;29;20022;-77
2024/02/12 02:41:55;;;;;;;41.13;24.98;;;307.70;2304.00;;;;;;4840710;29;20045;-79
2024/02/12 02:44:21;;;;;;;27.27;15.27;;;307.80;2304.00;;;;;;4840097;29;20026;-80
2024/02/12 02:46:46;;;;;;;54.83;31.02;;;307.70;2304.00;;;;;;4840726;29;20041;-81
2024/02/12 02:49:14;;;;;;;41.25;25.80;;;307.80;2304.00;;;;;;4840215;29;20037;-79
2024/02/12 02:51:43;;;;;;;52.25;34.47;;;307.60;2304.00;;;;;;4840515;29;20026;-78
2024/02/12 02:54:09;;;;;;;45.03;31.08;;;307.60;2304.00;;;;;;4840310;29;20054;-81
2024/02/12 02:56:35;;;;;;;55.67;37.22;;;307.60;2304.00;;;;;;4824199;29;20383;-79
2024/02/12 02:59:01;;;;;;;68.53;42.22;;;307.60;2304.00;;;;;;4840025;29;20026;-78
2024/02/12 03:01:31;;;;;;;69.00;40.38;;;307.50;2304.00;;;;;;4840380;29;20054;-75
2024/02/12 03:03:57;;;;;;;45.47;26.80;;;307.50;2304.00;;;;;;4827500;29;20030;-79
2024/02/12 03:06:26;;;;;;;59.58;32.08;;;307.50;2304.00;;;;;;4840186;29;20033;-81
2024/02/12 03:08:54;;;;;;;50.17;22.15;;;307.50;2304.00;;;;;;4811579;29;20390;-78
2024/02/12 03:11:23;;;;;;;53.13;29.25;;;307.60;2304.00;;;;;;4823410;29;20060;-78
2024/02/12 03:13:52;;;;;;;35.50;22.88;;;307.60;2304.00;;;;;;4839952;29;20070;-81
2024/02/12 03:16:19;;;;;;;30.27;19.85;;;307.60;2304.00;;;;;;4823532;29;20384;-81
2024/02/12 03:18:48;;;;;;;37.72;25.52;;;307.60;2304.00;;;;;;4840117;29;20478;-80
2024/02/12 03:21:23;;;;;;;30.25;17.40;;;307.40;2304.00;;;;;;4839874;29;20120;-80
2024/02/12 03:23:49;;;;;;;27.38;16.23;;;307.40;2304.00;;;;;;4840023;29;20105;-80
2024/02/12 03:26:16;;;;;;;20.13;12.82;;;307.40;2304.00;;;;;;4839993;29;20029;-80
2024/02/12 03:28:42;;;;;;;29.30;16.23;;;307.40;2304.00;;;;;;4839728;29;20061;-78
2024/02/12 03:31:09;;;;;;;41.55;25.67;;;282.50;2278.40;;;;;;4839667;29;20038;-78
2024/02/12 03:33:36;;;;;;;42.20;27.25;;;282.40;2278.40;;;;;;4839710;29;20030;-76
2024/02/12 03:36:02;;;;;;;22.40;13.32;;;282.30;2278.40;;;;;;4839431;29;20080;-76
2024/02/12 03:38:28;;;;;;;46.35;25.88;;;282.30;2278.40;;;;;;4839574;29;20026;-78
2024/02/12 03:40:54;;;;;;;30.42;17.08;;;282.00;2278.40;;;;;;4839135;29;20101;-78
2024/02/12 03:43:24;;;;;;;24.75;14.55;;;282.10;2278.40;;;;;;4823019;29;20070;-78
2024/02/12 03:45:55;;;;;;;32.85;19.38;;;281.90;2278.40;;;;;;4839165;29;20022;-77
2024/02/12 04:02:04;;;;;;;20.60;12.82;;;;;;;;;;4843984;29;20068;-79
2024/02/12 04:04:31;;;;;;;28.15;17.52;;;;;;;;;;4846305;29;20165;-78
2024/02/12 04:06:58;;;;;;;26.73;13.25;;;256.40;2252.80;;;;;;4839078;29;20496;-80
2024/02/12 04:09:24;;;;;;;45.75;25.33;;;;;;;;;;4838568;29;20038;-79
2024/02/12 04:11:51;;;;;;;16.08;8.15;;;;;;;;;;4838646;29;20028;-75
2024/02/12 04:14:17;;;;;;;13.52;6.43;;;256.90;2252.80;;;;;;4838815;29;20052;-80
2024/02/12 04:16:51;;;;;;;9.60;4.10;;;256.90;2252.80;;;;;;4838579;29;20481;-80
2024/02/12 04:19:18;;;;;;;12.57;5.57;;;256.90;2252.80;;;;;;4839019;29;20030;-80
2024/02/12 04:21:44;;;;;;;8.25;4.40;;;256.90;2252.80;;;;;;4822245;29;20540;-81
2024/02/12 04:24:10;;;;;;;9.80;4.00;;;256.90;2252.80;;;;;;4838683;29;20034;-77
2024/02/12 04:26:37;;;;;;;10.82;4.85;;;256.90;2252.80;;;;;;4838955;29;20358;-76
2024/02/12 04:29:07;;;;;;;8.90;5.57;;;256.90;2252.80;;;;;;4838331;29;20034;-80
2024/02/12 04:31:36;;;;;;;49.65;25.48;;;281.60;2278.40;;;;;;4826751;29;20018;-80
2024/02/12 04:34:07;;;;;;;10.80;6.55;;;281.70;2278.40;;;;;;4838197;29;20033;-80
2024/02/12 04:36:42;;;;;;;10.30;4.80;;;281.80;2278.40;;;;;;4838713;29;20014;-81
2024/02/12 04:39:14;;;;;;;7.28;3.50;;;281.90;2278.40;;;;;;4838644;29;20034;-80
2024/02/12 04:41:41;;;;;;;13.07;3.45;;;282.00;2278.40;;;;;;4838500;29;20099;-77
2024/02/12 04:44:07;;;;;;;4.22;2.80;;;282.00;2278.40;;;;;;4838412;29;20022;-81
2024/02/12 04:46:36;;;;;;;10.68;2.60;;;282.10;2278.40;;;;;;4838329;29;20050;-78
2024/02/12 04:49:03;;;;;;;26.70;13.32;;;282.20;2278.40;;;;;;4838212;29;20491;-79
2024/02/12 04:51:31;;;;;;;17.23;6.45;;;;;;;;;;4838530;29;20042;-81
2024/02/12 04:53:57;;;;;;;27.55;11.65;;;;;;;;;;4838251;29;20434;-80
2024/02/12 04:56:24;;;;;;;16.90;7.03;;;;;;;;;;4838263;29;20113;-80
2024/02/12 04:58:50;;;;;;;8.50;4.78;;;307.30;2304.00;;;;;;4838157;29;20447;-80
2024/02/12 05:01:16;;;;;;;34.05;11.27;;;307.20;2304.00;;;;;;4838216;29;20028;-79
2024/02/12 05:03:42;;;;;;;21.25;7.30;;;307.30;2304.00;;;;;;4842930;29;20450;-80
2024/02/12 05:06:08;;;;;;;43.72;19.08;;;307.30;2304.00;;;;;;4845612;29;20040;-80
2024/02/12 05:08:34;;;;;;;33.30;17.38;;;307.30;2304.00;;;;;;4837954;29;20090;-78
2024/02/12 05:11:00;;;;;;;21.55;10.60;;;307.50;2304.00;;;;;;4837908;29;20045;-81
2024/02/12 05:13:26;;;;;;;18.10;7.53;;;307.40;2304.00;;;;;;4838318;29;20022;-79
2024/02/12 05:15:54;;;;;;;4.95;3.47;;;307.40;2304.00;;;;;;4837934;29;20086;-78
2024/02/12 05:23:49;;;;;;;36.42;21.80;;;307.40;2304.00;;;;;;4838303;29;20062;-80
2024/02/12 05:26:18;;;;;;;29.80;17.85;;;307.40;2304.00;;;;;;4839805;29;20033;-78
2024/02/12 05:28:44;;;;;;;28.67;17.33;;;307.20;2304.00;;;;;;4841724;29;20057;-77
2024/02/12 05:31:10;;;;;;;11.40;5.28;;;307.20;2304.00;;;;;;4841501;29;20370;-77
2024/02/12 05:33:36;;;;;;;20.35;10.80;;;307.20;2304.00;;;;;;4839605;29;20025;-80
2024/02/12 05:36:04;;;;;;;24.45;12.48;;;307.30;2304.00;;;;;;4839097;29;20034;-80
2024/02/12 05:38:31;;;;;;;12.10;7.53;;;307.30;2304.00;;;;;;4841187;29;20022;-80
2024/02/12 05:40:57;;;;;;;129.32;114.78;;;307.40;2304.00;;;;;;4841882;29;20029;-82
2024/02/12 05:43:23;;;;;;;13.13;7.95;;;307.40;2304.00;;;;;;4841172;29;20030;-80
2024/02/12 05:45:48;;;;;;;7.45;3.72;;;307.30;2304.00;;;;;;4840206;29;20030;-84
2024/02/12 05:48:15;;;;;;;9.43;5.30;;;;;;;;;;4835883;29;20098;-83
2024/02/12 05:50:41;;;;;;;15.38;8.70;;;;;;;;;;4836970;29;20033;-81
2024/02/12 05:53:08;;;;;;;16.92;11.35;;;307.50;2304.00;;;;;;4841294;29;20030;-84
2024/02/12 05:55:39;;;;;;;16.65;11.10;;;307.50;2304.00;;;;;;4841620;29;20125;-82
2024/02/12 05:58:06;;;;;;;9.27;6.05;;;307.30;2304.00;;;;;;4841660;29;20026;-82
2024/02/12 06:00:32;;;;;;;10.82;5.65;;;307.60;2304.00;;;;;;4841539;29;20026;-85
2024/02/12 06:02:58;;;;;;;89.28;51.05;;;307.50;2304.00;;;;;;4841672;29;20022;-85
2024/02/12 06:05:24;;;;;;;46.90;26.38;;;;;;;;;;4826399;29;20431;-84
2024/02/12 06:07:50;;;;;;;62.72;37.72;;;;;;;;;;4841285;29;20586;-85
2024/02/12 06:10:17;;;;;;;33.63;23.83;;;;;;;;;;4834333;29;20038;-80
2024/02/12 06:12:43;;;;;;;59.15;33.85;;;;;;;;;;4841705;29;20492;-89
2024/02/12 06:15:10;;;;;;;32.00;21.27;;;307.80;2304.00;;;;;;4841563;29;20141;-89
2024/02/12 06:17:36;;;;;;;61.67;41.60;;;307.50;2304.00;;;;;;4840601;29;20091;-77
2024/02/12 06:20:05;;;;;;;38.10;26.52;;;307.40;2304.00;;;;;;4841438;29;20113;-86
2024/02/12 06:22:32;;;;;;;29.63;18.42;;;307.20;2304.00;;;;;;4841117;29;20033;-79
2024/02/12 06:24:57;;;;;;;23.60;17.38;;;307.30;2304.00;;;;;;4841280;29;20549;-78
2024/02/12 06:27:23;;;;;;;16.42;10.40;;;307.30;2304.00;;;;;;4841216;29;20030;-77
2024/02/12 06:29:49;;;;;;;19.70;12.15;;;307.40;2304.00;;;;;;4840957;29;20362;-82
2024/02/12 06:32:15;;;;;;;16.20;10.68;;;307.30;2304.00;;;;;;4841119;29;20354;-86
2024/02/12 06:34:44;;;;;;;279.30;184.02;;;307.80;2304.00;;;;;;4841002;29;20102;-82
2024/02/12 06:37:13;;;;;;;70.43;43.78;;;307.90;2304.00;;;;;;4840030;29;20022;-81
2024/02/12 06:39:39;;;;;;;32.42;20.70;;;308.00;2304.00;;;;;;4824673;29;20528;-88
2024/02/12 06:42:06;;;;;;;21.40;12.50;;;307.90;2304.00;;;;;;4841223;29;20037;-82
2024/02/12 06:44:35;;;;;;;42.58;27.98;;;307.80;2304.00;;;;;;4841017;29;20524;-82
2024/02/12 06:47:00;;;;;;;51.28;30.90;;;308.00;2304.00;;;;;;4840902;29;20030;-79
2024/02/12 06:49:26;;;;;;;120.97;76.82;;;;;;;;;;4841098;29;20086;-87
2024/02/12 06:51:53;;;;;;;23.60;16.10;;;;;;;;;;4840711;29;20101;-84
2024/02/12 06:54:19;;;;;;;162.75;100.72;;;;;;;;;;4840983;29;20097;-89
2024/02/12 06:56:46;;;;;;;102.90;68.55;;;;;;;;;;4840783;29;20022;-87
2024/02/12 06:59:12;;;;;;;92.10;63.60;;;;;;;;;;4840960;29;20373;-88
2024/02/12 07:01:38;;;;;;;44.25;30.15;;;;;;;;;;4840660;29;20393;-89
2024/02/12 07:04:04;;;;;;;17.98;13.07;;;;;;;;;;4840683;29;20117;-84
2024/02/12 07:06:31;;;;;;;34.42;20.92;;;;;;;;;;4840573;29;20485;-85
2024/02/12 07:08:57;;;;;;;44.50;31.52;;;333.00;2329.60;;;;;;4841107;29;20038;-85
2024/02/12 07:11:25;;;;;;;35.83;25.83;;;332.90;2329.60;;;;;;4840451;29;20018;-88
2024/02/12 07:13:51;;;;;;;29.23;18.88;;;332.90;2329.60;;;;;;4841003;29;20480;-89
2024/02/12 07:16:19;;;;;;;19.50;13.73;;;333.00;2329.60;;;;;;4840661;29;20033;-87
2024/02/12 07:18:45;;;;;;;19.75;14.80;;;333.00;2329.60;;;;;;4840613;29;20026;-83
2024/02/12 07:21:11;;;;;;;20.55;12.30;;;333.10;2329.60;;;;;;4840381;29;20026;-86
2024/02/12 07:23:37;;;;;;;18.85;16.90;;;333.30;2329.60;;;;;;4840509;29;20045;-86
2024/02/12 07:26:04;;;;;;;11.10;6.00;;;333.20;2329.60;;;;;;4840460;29;20030;-88
2024/02/12 07:28:30;;;;;;;22.50;14.27;;;333.30;2329.60;;;;;;4836496;29;20026;-84
2024/02/12 07:30:56;;;;;;;10.43;8.00;;;333.20;2329.60;;;;;;4826677;29;20045;-87
2024/02/12 07:33:22;;;;;;;25.20;16.23;;;333.30;2329.60;;;;;;4839905;29;20097;-87
2024/02/12 07:35:48;;;;;;;19.08;13.52;;;333.40;2329.60;;;;;;4827298;29;20035;-88
2024/02/12 07:38:14;;;;;;;70.72;40.47;;;333.40;2329.60;;;;;;4837112;29;20473;-79
2024/02/12 07:40:39;;;;;;;13.88;7.65;;;333.30;2329.60;;;;;;4837339;29;20030;-86
2024/02/12 07:43:06;;;;;;;16.45;10.75;;;333.30;2329.60;;;;;;4833810;29;20481;-87
2024/02/12 07:45:36;;;;;;;5.93;3.95;;;333.40;2329.60;;;;;;4823812;29;20040;-85
2024/02/12 07:48:02;;;;;;;13.88;7.00;;;333.50;2329.60;;;;;;4830216;29;20564;-82
2024/02/12 07:50:31;;;;;;;30.17;19.88;;;333.40;2329.60;;;;;;4832600;29;20084;-76
2024/02/12 07:52:57;;;;;;;13.23;7.45;;;333.00;2329.60;;;;;;4827130;29;20018;-87
2024/02/12 07:55:23;;;;;;;43.67;20.58;;;332.90;2329.60;;;;;;4839751;29;20105;-83
2024/02/12 07:57:49;;;;;;;16.15;11.80;;;332.90;2329.60;;;;;;4834997;29;20038;-89
2024/02/12 08:00:16;;;;;;;10.00;5.45;;;332.90;2329.60;;;;;;4829101;29;20446;-80
2024/02/12 08:02:51;;;;;;;5.97;4.30;;;332.90;2329.60;;;;;;4825854;29;20018;-76
2024/02/12 08:05:20;;;;;;;48.55;25.10;;;333.00;2329.60;;;;;;4823254;29;20030;-83
2024/02/12 08:07:45;;;;;;;16.70;8.80;;;333.10;2329.60;;;;;;4838995;29;20507;-85
2024/02/12 08:10:12;;;;;;;32.75;17.90;;;333.00;2329.60;;;;;;4830009;29;20054;-87
2024/02/12 08:12:38;;;;;;;5.93;3.90;;;333.00;2329.60;;;;;;4822771;29;20044;-85
2024/02/12 08:15:04;;;;;;;13.45;8.05;;;333.10;2329.60;;;;;;4837477;29;20384;-84
2024/02/12 08:17:30;;;;;;;21.17;12.18;;;;;;;;;;4825671;29;20046;-82
2024/02/12 08:19:56;;;;;;;10.13;5.78;;;;;;;;;;4829952;29;20030;-85
2024/02/12 08:22:22;;;;;;;9.18;5.28;;;;;;;;;;4824914;29;20030;-89
2024/02/12 08:24:49;;;;;;;11.57;7.40;;;;;;;;;;4829273;29;20042;-88
2024/02/12 08:27:16;;;;;;;12.25;6.72;;;;;;;;;;4833294;29;20038;-87
2024/02/12 08:29:42;;;;;;;28.20;16.75;;;;;;;;;;4828034;29;20038;-84
2024/02/12 08:32:16;;;;;;;11.93;7.10;;;;;;;;;;4826432;29;20115;-77
2024/02/12 08:34:42;;;;;;;22.08;14.20;;;;;;;;;;4825960;29;20092;-82
2024/02/12 08:37:11;;;;;;;11.70;7.18;;;;;;;;;;4836528;29;20395;-77
2024/02/12 08:39:37;;;;;;;7.82;5.60;;;;;;;;;;4839122;29;20037;-87
2024/02/12 08:42:04;;;;;;;10.05;5.60;;;;;;;;;;4838846;29;20026;-84
2024/02/12 08:44:31;;;;;;;24.42;18.27;;;;;;;;;;4838816;29;20034;-87
2024/02/12 08:46:59;;;;;;;21.25;11.35;;;;;;;;;;4838731;29;20026;-82
2024/02/12 08:49:28;;;;;;;20.23;12.57;;;;;;;;;;4837099;29;20094;-82
2024/02/12 08:51:56;;;;;;;20.88;12.45;;;;;;;;;;4848657;29;20034;-88
2024/02/12 08:54:22;;;;;;;25.50;23.00;;;;;;;;;;4840976;29;20049;-85
2024/02/12 08:56:51;;;;;;;16.42;14.80;;;;;;;;;;4839203;29;20030;-84
2024/02/12 08:59:21;;;;;;;57.28;33.20;;;;;;;;;;4838750;29;20046;-85
2024/02/12 09:01:47;;;;;;;9.15;6.47;;;;;;;;;;4848728;29;20022;-85
2024/02/12 09:04:14;;;;;;;14.75;6.63;;;;;;;;;;4840492;29;20025;-89
2024/02/12 09:06:40;;;;;;;47.50;26.52;;;;;;;;;;4839176;29;20060;-88
2024/02/12 09:09:07;;;;;;;8.75;7.75;;;;;;;;;;4843405;29;20053;-79
2024/02/12 09:11:33;;;;;;;11.48;8.20;;;;;;;;;;4842714;29;20054;-86
2024/02/12 09:14:00;;;;;;;11.63;7.65;;;;;;;;;;4839013;29;20500;-86
2024/02/12 09:16:26;;;;;;;18.20;16.20;;;;;;;;;;4838984;29;20422;-87
2024/02/12 09:18:54;;;;;;;15.82;10.07;;;;;;;;;;4838607;29;20026;-87
2024/02/12 09:21:20;;;;;;;15.02;12.98;;;;;;;;;;4842502;29;20030;-82
2024/02/12 09:23:46;;;;;;;18.17;13.20;;;;;;;;;;4843194;29;20433;-85
2024/02/12 09:26:12;;;;;;;14.75;10.68;;;333.60;2329.60;;;;;;4841427;29;20167;-86
2024/02/12 09:28:38;;;;;;;17.02;12.77;;;;;;;;;;4839212;29;20079;-84
2024/02/12 09:31:04;;;;;;;17.90;11.23;;;358.70;2329.60;;;;;;4838731;29;20541;-87
2024/02/12 09:33:30;;;;;;;14.25;10.82;;;;;;;;;;4838920;29;20026;-87
2024/02/12 09:35:57;;;;;;;19.23;11.48;;;;;;;;;;4838711;29;20026;-85
2024/02/12 09:38:23;;;;;;;16.35;12.50;;;359.00;2329.60;;;;;;4838616;29;20026;-80
2024/02/12 09:40:53;;;;;;;20.80;14.02;;;358.80;2329.60;;;;;;4838565;29;20034;-82
2024/02/12 09:43:22;;;;;;;13.60;11.30;;;358.80;2329.60;;;;;;4838772;29;20106;-79
2024/02/12 09:45:51;;;;;;;35.05;26.80;;;358.50;2329.60;;;;;;4837765;29;20381;-80
2024/02/12 09:48:17;;;;;;;53.58;43.35;;;358.40;2329.60;;;;;;4838702;29;20022;-85
2024/02/12 09:50:48;;;;;;;28.75;22.52;;;333.60;2329.60;;;;;;4838479;29;20033;-85
2024/02/12 09:53:18;;;;;;;24.00;17.30;;;333.50;2329.60;;;;;;4838411;29;20113;-76
2024/02/12 09:55:47;;;;;;;20.77;15.98;;;333.20;2329.60;;;;;;4838199;29;20034;-84
2024/02/12 09:58:16;;;;;;;22.88;18.52;;;333.20;2329.60;;;;;;4838438;29;20033;-85
2024/02/12 10:00:46;;;;;;;21.30;17.77;;;333.40;2329.60;;;;;;4838316;29;20034;-85
2024/02/12 10:03:12;;;;;;;28.80;25.55;;;333.40;2329.60;;;;;;4838178;29;20022;-83
2024/02/12 10:05:42;;;;;;;20.65;18.00;;;333.40;2329.60;;;;;;4826733;29;20034;-88
2024/02/12 10:08:22;;;;;;;28.13;25.05;;;333.30;2329.60;;;;;;4838447;29;20409;-89
2024/02/12 10:10:48;;;;;;;30.15;25.00;;;333.30;2329.60;;;;;;4838609;29;20038;-84
2024/02/12 10:13:16;;;;;;;24.95;19.67;;;333.40;2329.60;;;;;;4824430;29;20034;-84
2024/02/12 10:15:42;;;;;;;22.02;18.42;;;333.70;2329.60;;;;;;4841564;29;20045;-80
2024/02/12 10:18:15;;;;;;;23.48;19.08;;;358.50;2329.60;;;;;;4841617;29;20018;-83
2024/02/12 10:20:44;;;;;;;;;;;358.60;2329.60;;;;;;4835579;29;20069;-86
2024/02/12 10:23:12;;;;;;;32.85;24.08;;;358.70;2329.60;;;;;;4826898;29;20801;-80
2024/02/12 10:25:40;;;;;;;23.60;19.05;;;358.80;2329.60;;;;;;4841776;29;20273;-85
2024/02/12 10:28:06;;;;;;;26.95;21.15;;;358.70;2329.60;;;;;;4841182;29;20105;-87
2024/02/12 10:30:32;;;;;;;30.98;21.42;;;358.80;2329.60;;;;;;4841304;29;20541;-86
2024/02/12 10:33:05;;;;;;;36.38;24.70;;;359.10;2329.60;;;;;;4841287;29;20134;-81
2024/02/12 10:35:31;;;;;;;38.03;26.67;;;;;;;;;;4841371;29;20037;-81
2024/02/12 10:37:58;;;;;;;26.65;23.55;;;;;;;;;;4841460;29;20403;-77
2024/02/12 10:40:29;;;;;;;30.65;23.58;;;;;;;;;;4841299;29;20033;-79
2024/02/12 10:42:57;;;;;;;30.70;22.92;;;;;;;;;;4841101;29;20493;-85
2024/02/12 10:45:23;;;;;;;30.25;22.58;;;;;;;;;;4840944;29;20030;-79
2024/02/12 10:47:49;;;;;;;26.13;21.27;;;;;;;;;;4840798;29;20034;-82
2024/02/12 10:50:17;;;;;;;24.95;19.20;;;;;;;;;;4840990;29;20481;-81
2024/02/12 10:52:46;;;;;;;51.15;34.08;;;;;;;;;;4840863;29;20026;-87
2024/02/12 10:55:12;;;;;;;27.98;23.15;;;;;;;;;;4840712;29;20502;-83
2024/02/12 10:57:39;;;;;;;33.83;26.60;;;;;;;;;;4824683;29;20062;-76
2024/02/12 11:00:10;;;;;;;53.28;42.63;;;;;;;;;;4840706;29;20030;-82
2024/02/12 11:02:43;;;;;;;31.08;25.58;;;;;;;;;;4840858;29;20083;-83
2024/02/12 11:05:11;;;;;;;41.42;28.23;;;;;;;;;;4841065;29;20030;-81
2024/02/12 11:07:37;;;;;;;42.75;31.67;;;;;;;;;;4840783;29;20037;-80
2024/02/12 11:10:03;;;;;;;61.80;45.13;;;;;;;;;;4852069;29;20443;-86
2024/02/12 11:12:33;;;;;;;34.03;24.17;;;384.60;2329.60;;;;;;4840924;29;20062;-81
2024/02/12 11:15:00;;;;;;;43.90;33.67;;;384.50;2329.60;;;;;;4837053;29;20381;-82
2024/02/12 11:17:27;;;;;;;38.70;28.02;;;384.60;2329.60;;;;;;4832171;29;20049;-80
2024/02/12 11:19:54;;;;;;;46.60;35.75;;;384.60;2329.60;;;;;;4840507;29;20026;-84
2024/02/12 11:22:29;;;;;;;29.58;24.23;;;;;;;;;;4840623;29;20026;-88
2024/02/12 11:25:03;;;;;;;52.88;38.35;;;409.70;2355.20;;;;;;4839696;29;20045;-80
2024/02/12 11:27:51;;;;;;;23.65;18.05;;;384.70;2329.60;;;;;;4840584;29;20026;-84
2024/02/12 11:30:17;;;;;;;23.63;18.05;;;384.70;2329.60;;;;;;4831187;29;20041;-83
2024/02/12 11:32:47;;;;;;;38.55;26.17;;;384.60;2329.60;;;;;;4840168;29;20018;-85
2024/02/12 11:35:15;;;;;;;22.50;16.20;;;384.80;2329.60;;;;;;4840521;29;20030;-87
2024/02/12 11:37:56;;;;;;;25.98;18.95;;;384.40;2329.60;;;;;;4840181;29;20022;-81
2024/02/12 11:40:22;;;;;;;20.83;16.65;;;384.50;2329.60;;;;;;4840644;29;20022;-87
2024/02/12 11:42:51;;;;;;;25.40;16.70;;;384.40;2329.60;;;;;;4840390;29;20171;-88
2024/02/12 11:45:24;;;;;;;23.30;18.50;;;384.40;2329.60;;;;;;4839993;29;20030;-88
2024/02/12 11:47:51;;;;;;;23.10;18.30;;;384.10;2329.60;;;;;;4839802;29;20393;-76
2024/02/12 11:50:25;;;;;;;28.17;19.48;;;359.20;2329.60;;;;;;4838528;29;20038;-83
2024/02/12 11:52:52;;;;;;;33.35;22.70;;;359.30;2329.60;;;;;;4830370;29;20105;-83
2024/02/12 11:55:20;;;;;;;24.60;17.08;;;359.30;2329.60;;;;;;4836681;29;20627;-75
2024/02/12 11:57:47;;;;;;;35.65;23.15;;;359.10;2329.60;;;;;;4807163;29;20041;-86
2024/02/12 12:00:17;;;;;;;21.25;15.07;;;359.20;2329.60;;;;;;4826827;29;20025;-81
2024/02/12 12:02:47;;;;;;;22.35;16.92;;;358.90;2329.60;;;;;;4839656;29;20032;-85
2024/02/12 12:05:23;;;;;;;27.05;19.10;;;358.90;2329.60;;;;;;4836254;29;20022;-79
2024/02/12 12:07:50;;;;;;;25.27;18.23;;;358.70;2329.60;;;;;;4839728;29;20033;-85
2024/02/12 12:10:23;;;;;;;27.27;19.25;;;358.60;2329.60;;;;;;4844427;29;20039;-82
2024/02/12 12:12:49;;;;;;;;;;;358.50;2329.60;;;;;;4834962;29;20030;-87
2024/02/12 12:15:15;;;;;;;32.08;22.75;;;358.40;2329.60;;;;;;4838865;29;19919;-78
2024/02/12 12:17:41;;;;;;;25.33;18.98;;;333.70;2329.60;;;;;;4839354;29;20030;-86
2024/02/12 12:20:12;;;;;;;27.67;18.42;;;333.60;2329.60;;;;;;4839635;29;20052;-83
2024/02/12 12:22:39;;;;;;;55.80;32.63;;;;;;;;;;4839594;29;20026;-82
2024/02/12 12:25:08;;;;;;;23.17;17.90;;;;;;;;;;4839454;29;20042;-86
2024/02/12 12:27:34;;;;;;;25.67;18.55;;;;;;;;;;4821637;29;20434;-83
2024/02/12 12:30:12;;;;;;;21.35;16.27;;;333.60;2329.60;;;;;;4832853;29;20068;-81
2024/02/12 12:32:40;;;;;;;35.78;24.63;;;333.60;2329.60;;;;;;4822315;29;20053;-84
2024/02/12 12:35:07;;;;;;;23.77;18.55;;;333.50;2329.60;;;;;;4831757;29;20031;-85
2024/02/12 12:37:33;;;;;;;27.20;19.17;;;;;;;;;;4832489;29;20022;-86
2024/02/12 12:39:59;;;;;;;29.90;22.15;;;;;;;;;;4832101;29;20034;-82
2024/02/12 12:42:25;;;;;;;21.70;16.95;;;333.50;2329.60;;;;;;4835550;29;20021;-79
2024/02/12 12:44:51;;;;;;;18.45;15.35;;;333.50;2329.60;;;;;;4822782;29;20060;-79
2024/02/12 12:47:18;;;;;;;21.73;16.58;;;333.40;2329.60;;;;;;4836107;29;20022;-81
2024/02/12 12:49:44;;;;;;;29.25;19.83;;;333.30;2329.60;;;;;;4837328;29;20041;-84
2024/02/12 12:52:10;;;;;;;20.92;17.02;;;333.30;2329.60;;;;;;4835707;29;20083;-85